St Georges Chan, Ireland
Current Conditions -  °F | °C
As of 9:30 PM on Wednesday 28 Jan 2015 (Local Time) from EIWF Reporting Station
Moderate Rain Moderate Rain  
Wind Chill: 30°   Ceiling: Unl
Heat Index: 37°   Visibility: 6mi
Dew Point: 34°   Wind: 10mph
Humidity: 87%   Direction: 290°WNW
Pressure: 29.62"   Gusts: NA
Location:  52°N, 5.83°W
Report Text: EIWF 282030Z 29009KT 260V330 9999 RA SCT008 03/01 Q1003 R21/1/////
Loading
Personal Weather Stations






























Interactive Weather Map New forecast layout! Learn more

10-Day Weather Forecast

Advertisements
Track Severe Weather on mobile